createdAt,value
2022-12-11T00:02:02.054Z,19.80
2022-12-11T00:04:29.616Z,20.00
2022-12-11T00:06:57.166Z,18.87
2022-12-11T00:09:24.631Z,20.43
2022-12-11T00:11:52.228Z,19.67
2022-12-11T00:14:19.818Z,18.63
2022-12-11T00:16:48.453Z,19.27
2022-12-11T00:19:17.443Z,19.07
2022-12-11T00:21:47.901Z,18.27
2022-12-11T00:24:15.434Z,18.93
2022-12-11T00:26:43.104Z,17.97
2022-12-11T00:29:14.476Z,17.67
2022-12-11T00:31:42.797Z,16.13
2022-12-11T00:34:12.096Z,15.53
2022-12-11T00:36:41.142Z,14.90
2022-12-11T00:39:08.766Z,14.07
2022-12-11T00:41:36.293Z,13.80
2022-12-11T00:44:03.972Z,14.20
2022-12-11T00:46:31.494Z,13.27
2022-12-11T00:48:59.523Z,12.33
2022-12-11T00:51:27.217Z,11.67
2022-12-11T00:53:56.214Z,12.63
2022-12-11T00:56:24.529Z,14.10
2022-12-11T00:58:52.159Z,14.73
2022-12-11T01:01:20.943Z,14.93
2022-12-11T01:03:49.054Z,13.77
2022-12-11T01:06:17.552Z,12.00
2022-12-11T01:08:48.299Z,12.43
2022-12-11T01:11:17.068Z,11.77
2022-12-11T01:13:47.477Z,12.17
2022-12-11T01:16:16.343Z,10.73
2022-12-11T01:18:45.317Z,10.60
2022-12-11T01:21:14.033Z,10.33
2022-12-11T01:23:41.803Z,11.13
2022-12-11T01:26:10.337Z,11.20
2022-12-11T01:28:39.760Z,12.90
2022-12-11T01:31:09.231Z,11.13
2022-12-11T01:33:36.926Z,11.43
2022-12-11T01:36:07.779Z,9.87
2022-12-11T01:38:35.248Z,8.70
2022-12-11T01:41:02.808Z,8.10
2022-12-11T01:43:30.308Z,9.27
2022-12-11T01:45:59.285Z,7.43
2022-12-11T01:48:28.462Z,8.50
2022-12-11T01:50:57.208Z,7.73
2022-12-11T01:53:25.945Z,6.83
2022-12-11T01:55:54.823Z,7.07
2022-12-11T01:58:23.381Z,7.17
2022-12-11T02:00:50.922Z,7.53
2022-12-11T02:03:19.989Z,7.00
2022-12-11T02:05:47.483Z,7.70
2022-12-11T02:08:15.275Z,8.23
2022-12-11T02:10:54.664Z,8.20
2022-12-11T02:13:24.615Z,8.07
2022-12-11T02:15:56.831Z,8.27
2022-12-11T02:18:29.047Z,8.27
2022-12-11T02:21:01.702Z,8.67
2022-12-11T02:23:39.968Z,8.23
2022-12-11T02:26:13.209Z,10.87
2022-12-11T02:28:44.663Z,9.70
2022-12-11T02:31:13.954Z,11.00
2022-12-11T02:33:45.198Z,11.03
2022-12-11T02:36:13.161Z,11.97
2022-12-11T02:38:42.511Z,12.43
2022-12-11T02:41:11.836Z,11.47
2022-12-11T02:43:40.552Z,12.47
2022-12-11T02:46:09.609Z,12.17
2022-12-11T02:48:38.026Z,13.23
2022-12-11T02:51:06.684Z,12.97
2022-12-11T02:53:36.373Z,11.70
2022-12-11T02:56:09.919Z,13.07
2022-12-11T02:58:39.371Z,12.67
2022-12-11T03:01:06.956Z,13.57
2022-12-11T03:03:35.861Z,13.80
2022-12-11T03:06:04.026Z,12.83
2022-12-11T03:08:31.501Z,13.60
2022-12-11T03:10:59.344Z,13.93
2022-12-11T03:13:26.844Z,14.50
2022-12-11T03:16:00.256Z,14.63
2022-12-11T03:18:31.976Z,15.93
2022-12-11T03:21:03.961Z,14.53
2022-12-11T03:23:33.583Z,14.53
2022-12-11T03:26:04.586Z,14.60
2022-12-11T03:28:34.177Z,14.30
2022-12-11T03:31:03.650Z,14.50
2022-12-11T03:33:33.765Z,13.87
2022-12-11T03:36:05.938Z,13.63
2022-12-11T03:38:37.458Z,14.97
2022-12-11T03:41:06.624Z,14.93
2022-12-11T03:43:35.115Z,14.37
2022-12-11T03:46:02.826Z,14.67
2022-12-11T03:48:33.869Z,14.93
2022-12-11T03:51:04.808Z,14.43
2022-12-11T03:53:33.560Z,14.13
2022-12-11T03:56:01.538Z,14.63
2022-12-11T03:58:29.114Z,15.30
2022-12-11T04:00:56.604Z,14.43
2022-12-11T04:03:24.131Z,13.97
2022-12-11T04:05:52.543Z,13.97
2022-12-11T04:08:21.746Z,13.90
2022-12-11T04:11:09.728Z,14.97
2022-12-11T04:13:37.214Z,13.47
2022-12-11T04:16:03.868Z,13.27
2022-12-11T04:18:48.801Z,13.73
2022-12-11T04:21:39.106Z,14.40
2022-12-11T04:24:17.473Z,15.40
2022-12-11T04:26:48.136Z,13.80
2022-12-11T04:29:16.273Z,13.60
2022-12-11T04:31:43.872Z,14.90
2022-12-11T04:34:11.518Z,14.23
2022-12-11T04:36:39.082Z,14.23
2022-12-11T04:39:08.009Z,13.47
2022-12-11T04:41:35.632Z,14.37
2022-12-11T04:44:03.177Z,13.60
2022-12-11T04:46:30.768Z,13.60
2022-12-11T04:49:00.213Z,13.87
2022-12-11T04:51:28.364Z,14.00
2022-12-11T04:53:57.026Z,14.60
2022-12-11T04:56:25.874Z,14.33
2022-12-11T04:58:53.378Z,13.27
2022-12-11T05:01:22.174Z,13.57
2022-12-11T05:03:50.048Z,14.93
2022-12-11T05:06:17.819Z,14.53
2022-12-11T05:08:46.247Z,15.07
2022-12-11T05:11:14.712Z,14.03
2022-12-11T05:13:44.075Z,13.77
2022-12-11T05:16:13.531Z,14.40
2022-12-11T05:18:41.187Z,12.80
2022-12-11T05:21:09.487Z,13.90
2022-12-11T05:23:37.592Z,13.27
2022-12-11T05:26:06.449Z,13.00
2022-12-11T05:28:34.792Z,14.20
2022-12-11T05:31:05.154Z,15.10
2022-12-11T05:33:32.825Z,12.93
2022-12-11T05:36:00.330Z,13.03
2022-12-11T05:38:28.067Z,13.87
2022-12-11T05:40:59.109Z,14.10
2022-12-11T05:43:27.211Z,15.30
2022-12-11T05:45:55.080Z,14.67
2022-12-11T05:48:26.895Z,15.23
2022-12-11T05:50:57.900Z,14.13
2022-12-11T05:53:25.504Z,13.80
2022-12-11T05:55:53.041Z,13.23
2022-12-11T05:58:20.714Z,12.57
2022-12-11T06:00:48.403Z,13.37
2022-12-11T06:03:15.989Z,13.33
2022-12-11T06:05:46.538Z,13.63
2022-12-11T06:08:14.076Z,14.50
2022-12-11T06:10:46.095Z,13.83
2022-12-11T06:13:13.810Z,13.43
2022-12-11T06:15:41.318Z,13.50
2022-12-11T06:18:08.897Z,14.27
2022-12-11T06:20:36.626Z,13.63
2022-12-11T06:23:05.582Z,15.60
2022-12-11T06:25:33.126Z,16.53
2022-12-11T06:28:00.814Z,15.83
2022-12-11T06:30:37.492Z,16.30
2022-12-11T06:33:07.151Z,15.57
2022-12-11T06:35:40.277Z,15.63
2022-12-11T06:38:11.707Z,16.27
2022-12-11T06:40:39.390Z,15.60
2022-12-11T06:43:07.024Z,16.10
2022-12-11T06:45:34.657Z,15.20
2022-12-11T06:48:02.335Z,15.80
2022-12-11T06:50:29.999Z,14.07
2022-12-11T06:52:57.622Z,13.90
2022-12-11T06:55:26.549Z,15.20
2022-12-11T06:57:54.134Z,15.73
2022-12-11T07:00:21.921Z,15.90
2022-12-11T07:02:51.557Z,14.93
2022-12-11T07:05:19.267Z,14.27
2022-12-11T07:07:46.882Z,14.80
2022-12-11T07:10:14.403Z,15.93
2022-12-11T07:12:46.005Z,15.70
2022-12-11T07:15:13.851Z,15.33
2022-12-11T07:17:41.557Z,16.67
2022-12-11T07:20:09.889Z,17.07
2022-12-11T07:22:41.591Z,15.00
2022-12-11T07:25:12.631Z,15.63
2022-12-11T07:27:40.269Z,16.93
2022-12-11T07:30:10.681Z,16.80
2022-12-11T07:32:38.312Z,16.73
2022-12-11T07:35:06.264Z,19.57
2022-12-11T07:37:33.949Z,17.80
2022-12-11T07:40:01.555Z,17.87
2022-12-11T07:42:29.832Z,19.17
2022-12-11T07:44:57.424Z,19.87
2022-12-11T07:47:26.315Z,29.47
2022-12-11T07:49:53.862Z,20.03
2022-12-11T07:52:21.309Z,19.33
2022-12-11T07:54:48.868Z,20.17
2022-12-11T07:57:16.953Z,19.97
2022-12-11T07:59:47.135Z,21.13
2022-12-11T08:02:14.677Z,21.67
2022-12-11T08:04:43.908Z,22.93
2022-12-11T08:07:12.721Z,21.23
2022-12-11T08:09:40.580Z,20.97
2022-12-11T08:12:08.121Z,21.77
2022-12-11T08:14:35.689Z,22.17
2022-12-11T08:17:03.439Z,22.27
2022-12-11T08:19:31.155Z,21.43
2022-12-11T08:22:00.086Z,22.13
2022-12-11T08:24:27.695Z,21.90
2022-12-11T08:27:00.365Z,23.20
2022-12-11T08:29:28.139Z,23.20
2022-12-11T08:31:55.661Z,19.77
2022-12-11T08:34:23.254Z,23.50
2022-12-11T08:36:51.107Z,21.70
2022-12-11T08:39:20.092Z,20.00
2022-12-11T08:41:47.699Z,17.83
2022-12-11T08:44:16.984Z,18.70
2022-12-11T08:46:45.625Z,19.47
2022-12-11T08:49:14.076Z,19.77
2022-12-11T08:51:42.764Z,19.40
2022-12-11T08:54:10.848Z,20.10
2022-12-11T08:56:40.496Z,19.80
2022-12-11T08:59:08.167Z,19.27
2022-12-11T09:01:44.656Z,19.77
2022-12-11T09:04:12.322Z,20.30
2022-12-11T09:06:39.884Z,16.97
2022-12-11T09:09:07.651Z,17.50
2022-12-11T09:11:36.395Z,18.07
2022-12-11T09:14:07.873Z,17.97
2022-12-11T09:16:37.754Z,17.80
2022-12-11T09:19:05.527Z,18.50
2022-12-11T09:21:33.076Z,18.20
2022-12-11T09:24:01.973Z,21.27
2022-12-11T09:26:30.458Z,19.67
2022-12-11T09:28:58.271Z,19.50
2022-12-11T09:31:28.382Z,20.40
2022-12-11T09:33:57.652Z,20.33
2022-12-11T09:36:25.376Z,22.20
2022-12-11T09:38:53.725Z,19.60
2022-12-11T09:41:29.763Z,21.17
2022-12-11T09:44:08.087Z,22.93
2022-12-11T09:46:38.479Z,21.27
2022-12-11T09:49:06.936Z,20.27
2022-12-11T09:51:37.886Z,18.23
2022-12-11T09:54:06.229Z,18.43
2022-12-11T09:56:34.739Z,16.87
2022-12-11T09:59:09.518Z,16.13
2022-12-11T10:01:42.011Z,17.50
2022-12-11T10:04:22.636Z,16.53
2022-12-11T10:07:02.352Z,15.87
2022-12-11T10:09:32.105Z,16.47
2022-12-11T10:12:04.012Z,17.40
2022-12-11T10:14:36.734Z,14.27
2022-12-11T10:17:10.534Z,17.33
2022-12-11T10:19:38.271Z,16.50
2022-12-11T10:22:05.983Z,17.50
2022-12-11T10:25:09.338Z,16.97
2022-12-11T10:27:26.436Z,17.20
2022-12-11T10:29:57.596Z,16.17
2022-12-11T10:32:28.286Z,16.83
2022-12-11T10:34:59.026Z,16.70
2022-12-11T10:37:26.629Z,16.77
2022-12-11T10:39:54.213Z,16.27
2022-12-11T10:42:22.921Z,16.17
2022-12-11T10:44:57.918Z,16.73
2022-12-11T10:47:27.282Z,16.00
2022-12-11T10:50:03.599Z,17.43
2022-12-11T10:52:33.288Z,17.53
2022-12-11T10:55:02.782Z,17.57
2022-12-11T10:57:32.350Z,16.67
2022-12-11T11:00:00.667Z,16.73
2022-12-11T11:02:31.536Z,14.40
2022-12-11T11:05:00.117Z,15.43
2022-12-11T11:07:28.914Z,16.00
2022-12-11T11:10:05.296Z,15.10
2022-12-11T11:12:38.096Z,16.17
2022-12-11T11:15:06.683Z,15.87
2022-12-11T11:17:51.145Z,15.63
2022-12-11T11:20:23.755Z,14.60
2022-12-11T11:22:52.369Z,14.97
2022-12-11T11:25:21.210Z,15.83
2022-12-11T11:27:53.266Z,16.00
2022-12-11T11:30:22.583Z,17.40
2022-12-11T11:32:53.228Z,16.63
2022-12-11T11:35:22.357Z,16.17
2022-12-11T11:37:55.795Z,14.27
2022-12-11T11:40:25.351Z,15.40
2022-12-11T11:42:57.542Z,15.93
2022-12-11T11:45:27.752Z,14.43
2022-12-11T11:48:07.762Z,16.80
2022-12-11T11:50:39.319Z,16.67
2022-12-11T11:53:11.416Z,14.80
2022-12-11T11:55:42.692Z,14.90
2022-12-11T11:58:14.868Z,15.30
2022-12-11T12:00:42.567Z,14.10
2022-12-11T12:03:13.251Z,15.03
2022-12-11T12:05:42.987Z,14.03
2022-12-11T12:08:14.756Z,12.23
2022-12-11T12:10:46.273Z,12.93
2022-12-11T12:13:44.762Z,14.13
2022-12-11T12:16:36.337Z,14.07
2022-12-11T12:19:04.096Z,13.87
2022-12-11T12:21:35.249Z,12.27
2022-12-11T12:24:07.831Z,12.70
2022-12-11T12:26:36.829Z,12.83
2022-12-11T12:29:10.794Z,14.20
2022-12-11T12:31:52.093Z,13.30
2022-12-11T12:34:25.941Z,14.30
2022-12-11T12:37:00.256Z,13.70
2022-12-11T12:39:31.662Z,16.33
2022-12-11T12:42:07.245Z,16.00
2022-12-11T12:44:39.947Z,13.33
2022-12-11T12:47:12.285Z,20.43
2022-12-11T12:49:42.267Z,15.70
2022-12-11T12:52:14.626Z,14.50
2022-12-11T12:54:43.243Z,13.00
2022-12-11T12:57:11.059Z,12.00
2022-12-11T12:59:38.759Z,12.57
2022-12-11T13:02:08.868Z,13.30
2022-12-11T13:04:58.249Z,14.57
2022-12-11T13:07:29.847Z,14.00
2022-12-11T13:10:02.265Z,14.07
2022-12-11T13:12:34.063Z,12.60
2022-12-11T13:15:01.915Z,13.47
2022-12-11T13:17:37.160Z,13.27
2022-12-11T13:20:13.924Z,13.27
2022-12-11T13:23:05.515Z,12.70
2022-12-11T13:25:37.483Z,12.80
2022-12-11T13:28:20.576Z,12.70
2022-12-11T13:30:57.754Z,12.30
2022-12-11T13:33:25.440Z,13.33
2022-12-11T13:36:08.741Z,13.67
2022-12-11T13:38:45.689Z,13.77
2022-12-11T13:41:13.895Z,13.77
2022-12-11T13:43:43.055Z,14.77
2022-12-11T13:46:12.576Z,12.83
2022-12-11T13:48:40.780Z,13.00
2022-12-11T13:51:15.524Z,13.30
2022-12-11T13:53:43.122Z,13.27
2022-12-11T13:56:17.114Z,15.97
2022-12-11T13:58:45.156Z,16.97
2022-12-11T14:01:15.144Z,16.13
2022-12-11T14:03:44.402Z,15.00
2022-12-11T14:06:18.634Z,13.73
2022-12-11T14:08:49.525Z,13.90
2022-12-11T14:11:20.029Z,13.13
2022-12-11T14:13:47.582Z,13.63
2022-12-11T14:16:20.518Z,13.90
2022-12-11T14:18:50.078Z,12.90
2022-12-11T14:21:23.390Z,14.17
2022-12-11T14:23:55.309Z,13.50
2022-12-11T14:26:24.058Z,13.57
2022-12-11T14:28:52.339Z,12.60
2022-12-11T14:31:27.757Z,13.07
2022-12-11T14:33:56.946Z,13.90
2022-12-11T14:36:26.506Z,14.03
2022-12-11T14:38:56.538Z,13.30
2022-12-11T14:41:26.191Z,13.17
2022-12-11T14:43:55.436Z,13.53
2022-12-11T14:46:25.092Z,15.00
2022-12-11T14:49:00.411Z,15.40
2022-12-11T14:51:33.366Z,13.57
2022-12-11T14:54:01.199Z,14.30
2022-12-11T14:56:30.745Z,14.00
2022-12-11T14:59:00.391Z,15.00
2022-12-11T15:01:28.875Z,15.17
2022-12-11T15:04:03.516Z,14.90
2022-12-11T15:06:33.513Z,13.70
2022-12-11T15:09:10.523Z,15.10
2022-12-11T15:11:38.030Z,14.83
2022-12-11T15:14:06.228Z,13.87
2022-12-11T15:16:35.019Z,15.17
2022-12-11T15:19:02.879Z,17.20
2022-12-11T15:21:31.643Z,14.20
2022-12-11T15:24:01.219Z,14.90
2022-12-11T15:26:34.854Z,15.03
2022-12-11T15:29:02.897Z,15.83
2022-12-11T15:31:31.509Z,15.93
2022-12-11T15:33:59.412Z,16.37
2022-12-11T15:36:27.826Z,15.27
2022-12-11T15:38:55.464Z,15.70
2022-12-11T15:41:25.050Z,15.37
2022-12-11T15:43:58.293Z,15.00
2022-12-11T15:46:26.702Z,14.40
2022-12-11T15:48:54.263Z,12.67
2022-12-11T15:51:22.914Z,13.80
2022-12-11T15:53:50.524Z,13.83
2022-12-11T15:56:18.344Z,13.97
2022-12-11T15:58:48.720Z,14.27
2022-12-11T16:01:16.390Z,14.77
2022-12-11T16:03:44.049Z,14.77
2022-12-11T16:06:12.584Z,14.67
2022-12-11T16:08:40.119Z,15.23
2022-12-11T16:11:07.670Z,14.87
2022-12-11T16:13:35.744Z,14.33
2022-12-11T16:16:05.653Z,12.87
2022-12-11T16:18:33.582Z,15.90
2022-12-11T16:21:09.634Z,21.00
2022-12-11T16:23:37.500Z,18.70
2022-12-11T16:26:09.634Z,15.83
2022-12-11T16:28:37.369Z,16.53
2022-12-11T16:31:10.563Z,18.10
2022-12-11T16:33:38.571Z,15.67
2022-12-11T16:36:12.997Z,21.47
2022-12-11T16:38:40.506Z,16.53
2022-12-11T16:41:08.006Z,18.40
2022-12-11T16:43:35.578Z,17.70
2022-12-11T16:46:03.131Z,16.90
2022-12-11T16:48:32.191Z,19.13
2022-12-11T16:50:59.723Z,17.93
2022-12-11T16:53:27.433Z,18.07
2022-12-11T16:55:54.969Z,15.97
2022-12-11T16:58:22.481Z,16.77
2022-12-11T17:00:50.582Z,17.40
2022-12-11T17:03:18.087Z,17.10
2022-12-11T17:05:47.078Z,16.70
2022-12-11T17:08:14.671Z,16.27
2022-12-11T17:10:43.073Z,16.50
2022-12-11T17:13:10.561Z,16.00
2022-12-11T17:15:40.619Z,15.40
2022-12-11T17:18:08.172Z,16.30
2022-12-11T17:20:35.963Z,16.13
2022-12-11T17:23:04.836Z,15.97
2022-12-11T17:25:32.326Z,14.53
2022-12-11T17:27:59.877Z,17.10
2022-12-11T17:30:27.470Z,17.23
2022-12-11T17:32:55.156Z,16.90
2022-12-11T17:35:23.504Z,20.10
2022-12-11T17:37:51.411Z,21.13
2022-12-11T17:40:22.578Z,19.83
2022-12-11T17:42:50.394Z,19.20
2022-12-11T17:45:18.218Z,17.67
2022-12-11T17:47:45.836Z,18.00
2022-12-11T17:50:13.624Z,17.53
2022-12-11T17:52:44.281Z,17.13
2022-12-11T17:55:12.556Z,17.60
2022-12-11T17:57:41.680Z,16.90
2022-12-11T18:00:09.965Z,17.33
2022-12-11T18:02:37.538Z,15.73
2022-12-11T18:05:05.331Z,17.17
2022-12-11T18:07:32.923Z,18.60
2022-12-11T18:10:00.611Z,21.37
2022-12-11T18:12:28.228Z,19.07
2022-12-11T18:15:00.167Z,19.43
2022-12-11T18:17:27.720Z,18.53
2022-12-11T18:19:55.283Z,19.70
2022-12-11T18:22:22.771Z,20.10
2022-12-11T18:24:51.309Z,19.47
2022-12-11T18:27:21.139Z,17.67
2022-12-11T18:29:48.689Z,18.53
2022-12-11T18:32:17.579Z,19.97
2022-12-11T18:34:45.652Z,22.53
2022-12-11T18:37:13.206Z,21.27
2022-12-11T18:39:40.788Z,22.17
2022-12-11T18:42:32.476Z,21.47
2022-12-11T18:44:55.900Z,21.40
2022-12-11T18:47:24.887Z,21.30
2022-12-11T18:49:52.570Z,22.10
2022-12-11T18:52:20.242Z,20.60
2022-12-11T18:54:49.341Z,21.10
2022-12-11T18:57:16.934Z,19.73
2022-12-11T18:59:44.580Z,19.97
2022-12-11T19:02:12.602Z,20.20
2022-12-11T19:04:41.663Z,21.43
2022-12-11T19:07:09.174Z,21.27
2022-12-11T19:09:38.234Z,22.50
2022-12-11T19:12:06.590Z,20.93
2022-12-11T19:14:34.161Z,21.80
2022-12-11T19:17:03.213Z,20.67
2022-12-11T19:19:30.842Z,19.27
2022-12-11T19:22:00.083Z,19.13
2022-12-11T19:24:31.859Z,19.43
2022-12-11T19:26:59.672Z,19.10
2022-12-11T19:29:28.654Z,18.77
2022-12-11T19:31:56.973Z,19.13
2022-12-11T19:34:25.789Z,18.73
2022-12-11T19:36:53.643Z,20.80
2022-12-11T19:39:22.877Z,21.37
2022-12-11T19:41:50.644Z,22.37
2022-12-11T19:44:18.214Z,22.23
2022-12-11T19:46:45.904Z,20.47
2022-12-11T19:49:13.705Z,18.33
2022-12-11T19:51:42.075Z,18.03
2022-12-11T19:54:10.577Z,16.37
2022-12-11T19:56:39.681Z,19.07
2022-12-11T19:59:08.533Z,19.67
2022-12-11T20:01:37.612Z,19.20
2022-12-11T20:04:06.095Z,17.87
2022-12-11T20:06:34.409Z,18.27
2022-12-11T20:09:02.384Z,18.57
2022-12-11T20:11:30.108Z,18.80
2022-12-11T20:13:59.104Z,19.43
2022-12-11T20:16:53.230Z,16.40
2022-12-11T20:19:14.354Z,17.67
2022-12-11T20:21:42.670Z,19.27
2022-12-11T20:24:10.505Z,20.43
2022-12-11T20:26:38.251Z,21.27
2022-12-11T20:29:08.302Z,20.50
2022-12-11T20:31:36.617Z,18.90
2022-12-11T20:34:05.002Z,18.57
2022-12-11T20:36:32.708Z,18.97
2022-12-11T20:39:00.659Z,19.50
2022-12-11T20:41:28.516Z,19.60
2022-12-11T20:43:56.116Z,18.43
2022-12-11T20:46:26.596Z,19.37
2022-12-11T20:48:55.041Z,18.50
2022-12-11T20:51:26.012Z,20.00
2022-12-11T20:53:58.372Z,18.27
2022-12-11T20:56:27.328Z,20.43
2022-12-11T20:58:54.864Z,20.20
2022-12-11T21:01:23.408Z,18.93
2022-12-11T21:03:55.171Z,20.37
2022-12-11T21:06:28.934Z,19.90
2022-12-11T21:08:56.535Z,24.17
2022-12-11T21:11:24.383Z,22.53
2022-12-11T21:13:52.276Z,22.57
2022-12-11T21:16:20.131Z,22.90
2022-12-11T21:18:48.272Z,20.57
2022-12-11T21:21:17.311Z,21.10
2022-12-11T21:23:45.088Z,20.33
2022-12-11T21:26:13.172Z,20.63
2022-12-11T21:28:40.777Z,21.37
2022-12-11T21:31:09.349Z,20.27
2022-12-11T21:33:37.185Z,23.50
2022-12-11T21:36:07.098Z,21.67
2022-12-11T21:38:36.121Z,21.27
2022-12-11T21:41:08.079Z,23.00
2022-12-11T21:43:35.628Z,20.97
2022-12-11T21:46:03.520Z,21.03
2022-12-11T21:48:31.840Z,24.43
2022-12-11T21:51:05.604Z,22.13
2022-12-11T21:53:33.249Z,24.50
2022-12-11T21:56:04.952Z,26.60
2022-12-11T21:58:32.579Z,21.20
2022-12-11T22:01:00.209Z,19.63
2022-12-11T22:03:27.765Z,20.27
2022-12-11T22:05:55.449Z,19.20
2022-12-11T22:08:25.680Z,21.47
2022-12-11T22:10:53.489Z,20.47
2022-12-11T22:13:22.406Z,22.77
2022-12-11T22:15:52.205Z,22.90
2022-12-11T22:18:19.836Z,22.30
2022-12-11T22:20:47.485Z,22.00
2022-12-11T22:23:15.198Z,21.80
2022-12-11T22:25:42.865Z,21.00
2022-12-11T22:28:10.401Z,22.90
2022-12-11T22:30:39.596Z,21.73
2022-12-11T22:33:07.297Z,22.03
2022-12-11T22:35:34.966Z,20.83
2022-12-11T22:38:02.781Z,22.80
2022-12-11T22:40:31.043Z,20.93
2022-12-11T22:42:58.615Z,21.40
2022-12-11T22:45:26.351Z,19.47
2022-12-11T22:47:55.222Z,19.63
2022-12-11T22:50:22.833Z,19.80
2022-12-11T22:52:50.362Z,19.80
2022-12-11T22:55:18.019Z,19.90
2022-12-11T22:57:45.726Z,18.53
2022-12-11T23:00:14.061Z,18.70
2022-12-11T23:02:42.871Z,20.07
2022-12-11T23:05:12.763Z,21.93
2022-12-11T23:07:40.756Z,19.97
2022-12-11T23:10:09.855Z,21.60
2022-12-11T23:12:37.810Z,16.80
2022-12-11T23:15:06.832Z,17.30
2022-12-11T23:17:34.473Z,17.90
2022-12-11T23:20:03.812Z,18.67
2022-12-11T23:22:32.917Z,19.40
2022-12-11T23:25:00.678Z,18.77
2022-12-11T23:27:28.272Z,18.63
2022-12-11T23:29:56.209Z,18.53
2022-12-11T23:32:23.698Z,16.33
2022-12-11T23:34:54.155Z,18.87
2022-12-11T23:37:21.760Z,19.03
2022-12-11T23:39:51.020Z,17.33
2022-12-11T23:42:18.527Z,18.47
2022-12-11T23:44:46.045Z,16.27
2022-12-11T23:47:13.676Z,16.10
2022-12-11T23:49:41.185Z,15.37
2022-12-11T23:52:08.695Z,15.90
2022-12-11T23:54:36.292Z,13.93
2022-12-11T23:57:05.221Z,12.67
2022-12-11T23:59:32.867Z,12.07
